createdAt,value
2023-02-26T00:01:02.727Z,97065.56
2023-02-26T00:03:30.795Z,97064.00
2023-02-26T00:06:01.373Z,97069.09
2023-02-26T00:08:31.339Z,97078.53
2023-02-26T00:11:01.978Z,97069.97
2023-02-26T00:13:30.401Z,97079.41
2023-02-26T00:16:01.293Z,97077.66
2023-02-26T00:18:30.358Z,97076.81
2023-02-26T00:20:58.818Z,97082.84
2023-02-26T00:23:26.989Z,97072.56
2023-02-26T00:25:54.876Z,97087.19
2023-02-26T00:28:24.708Z,97089.72
2023-02-26T00:30:53.024Z,97088.03
2023-02-26T00:33:21.369Z,97098.28
2023-02-26T00:35:49.686Z,97093.94
2023-02-26T00:38:18.372Z,97087.00
2023-02-26T00:40:47.244Z,97096.38
2023-02-26T00:43:17.427Z,97101.53
2023-02-26T00:45:48.897Z,97100.72
2023-02-26T00:48:30.641Z,97104.94
2023-02-26T00:51:01.399Z,97104.06
2023-02-26T00:53:34.110Z,97098.84
2023-02-26T00:56:01.910Z,97101.41
2023-02-26T00:58:29.720Z,97106.50
2023-02-26T01:00:58.854Z,97101.28
2023-02-26T01:03:27.239Z,97104.72
2023-02-26T01:05:55.419Z,97111.66
2023-02-26T01:08:27.063Z,97107.19
2023-02-26T01:10:55.257Z,97115.06
2023-02-26T01:13:23.462Z,97111.59
2023-02-26T01:15:54.481Z,97115.06
2023-02-26T01:18:26.312Z,97109.81
2023-02-26T01:20:58.277Z,97106.34
2023-02-26T01:23:27.778Z,97111.47
2023-02-26T01:25:58.824Z,97110.66
2023-02-26T01:28:27.499Z,97116.66
2023-02-26T01:31:00.569Z,97117.53
2023-02-26T01:33:33.209Z,97115.06
2023-02-26T01:36:04.764Z,97113.22
2023-02-26T01:38:40.666Z,97115.78
2023-02-26T01:41:16.997Z,97099.63
2023-02-26T01:43:52.982Z,97112.38
2023-02-26T01:46:26.206Z,97115.75
2023-02-26T01:48:57.644Z,97110.72
2023-02-26T01:51:50.186Z,97111.50
2023-02-26T01:54:20.751Z,97114.16
2023-02-26T01:56:51.736Z,97123.53
2023-02-26T01:59:24.292Z,97118.53
2023-02-26T02:01:54.057Z,97123.38
2023-02-26T02:04:23.905Z,97124.41
2023-02-26T02:06:52.088Z,97125.44
2023-02-26T02:09:19.932Z,97136.81
2023-02-26T02:12:01.049Z,97136.16
2023-02-26T02:14:34.544Z,97121.84
2023-02-26T02:17:09.922Z,97133.00
2023-02-26T02:19:56.705Z,97127.91
2023-02-26T02:22:48.084Z,97137.50
2023-02-26T02:25:34.919Z,97135.94
2023-02-26T02:28:07.406Z,97139.47
2023-02-26T02:30:40.400Z,97134.41
2023-02-26T02:33:14.059Z,97131.88
2023-02-26T02:35:44.126Z,97135.41
2023-02-26T02:38:15.561Z,97136.31
2023-02-26T02:40:47.654Z,97132.97
2023-02-26T02:43:17.314Z,97141.63
2023-02-26T02:45:49.202Z,97140.78
2023-02-26T02:48:22.071Z,97137.41
2023-02-26T02:50:52.459Z,97148.50
2023-02-26T02:53:22.359Z,97147.72
2023-02-26T02:55:55.846Z,97145.13
2023-02-26T02:58:25.187Z,97155.56
2023-02-26T03:00:56.853Z,97163.28
2023-02-26T03:03:30.716Z,97157.31
2023-02-26T03:05:58.523Z,97159.91
2023-02-26T03:08:29.368Z,97163.38
2023-02-26T03:10:57.258Z,97162.56
2023-02-26T03:13:26.099Z,97151.47
2023-02-26T03:16:03.292Z,97162.69
2023-02-26T03:18:42.568Z,97159.28
2023-02-26T03:21:14.054Z,97172.16
2023-02-26T03:23:46.863Z,97164.53
2023-02-26T03:26:19.733Z,97170.56
2023-02-26T03:28:53.295Z,97183.47
2023-02-26T03:31:24.356Z,97184.38
2023-02-26T03:33:56.530Z,97184.50
2023-02-26T03:36:28.343Z,97192.16
2023-02-26T03:38:59.830Z,97186.19
2023-02-26T03:41:31.204Z,97191.38
2023-02-26T03:44:01.754Z,97200.00
2023-02-26T03:46:32.999Z,97200.00
2023-02-26T03:49:07.106Z,97200.94
2023-02-26T03:51:36.512Z,97208.69
2023-02-26T03:54:07.221Z,97205.28
2023-02-26T03:56:38.690Z,97212.97
2023-02-26T03:59:06.558Z,97219.00
2023-02-26T04:01:37.677Z,97210.50
2023-02-26T04:04:10.557Z,97215.66
2023-02-26T04:06:38.427Z,97223.38
2023-02-26T04:09:07.094Z,97222.50
2023-02-26T04:11:35.560Z,97228.53
2023-02-26T04:14:03.356Z,97229.41
2023-02-26T04:16:31.116Z,97230.34
2023-02-26T04:18:58.962Z,97233.84
2023-02-26T04:21:28.128Z,97219.44
2023-02-26T04:23:55.865Z,97222.94
2023-02-26T04:26:23.872Z,97245.91
2023-02-26T04:28:51.776Z,97234.72
2023-02-26T04:31:19.702Z,97241.50
2023-02-26T04:33:47.727Z,97232.88
2023-02-26T04:36:15.579Z,97234.63
2023-02-26T04:38:44.684Z,97244.00
2023-02-26T04:41:12.440Z,97237.13
2023-02-26T04:43:40.161Z,97232.84
2023-02-26T04:46:07.953Z,97237.19
2023-02-26T04:48:35.854Z,97234.59
2023-02-26T04:51:03.638Z,97248.38
2023-02-26T04:53:32.196Z,97226.34
2023-02-26T04:56:02.275Z,97259.59
2023-02-26T04:58:30.146Z,97219.56
2023-02-26T05:00:58.656Z,97262.19
2023-02-26T05:03:26.410Z,97251.91
2023-02-26T05:05:54.367Z,97255.41
2023-02-26T05:08:22.248Z,97253.72
2023-02-26T05:10:51.087Z,97252.88
2023-02-26T05:13:20.390Z,97270.91
2023-02-26T05:15:48.274Z,97272.69
2023-02-26T05:18:16.039Z,97269.25
2023-02-26T05:20:43.876Z,97284.69
2023-02-26T05:23:11.704Z,97291.56
2023-02-26T05:25:39.503Z,97293.28
2023-02-26T05:28:07.290Z,97288.22
2023-02-26T05:30:36.497Z,97290.72
2023-02-26T05:33:04.344Z,97293.28
2023-02-26T05:35:32.127Z,97293.34
2023-02-26T05:37:59.972Z,97304.44
2023-02-26T05:40:27.769Z,97312.19
2023-02-26T05:42:55.571Z,97303.59
2023-02-26T05:45:23.354Z,97308.72
2023-02-26T05:47:52.494Z,97312.16
2023-02-26T05:50:20.380Z,97313.84
2023-02-26T05:52:48.179Z,97315.59
2023-02-26T05:55:16.820Z,97300.19
2023-02-26T05:57:44.664Z,97313.09
2023-02-26T06:00:13.843Z,97311.44
2023-02-26T06:02:41.744Z,97329.44
2023-02-26T06:05:11.403Z,97321.75
2023-02-26T06:07:39.328Z,97330.31
2023-02-26T06:10:09.215Z,97333.75
2023-02-26T06:12:37.288Z,97327.75
2023-02-26T06:15:07.514Z,97335.47
2023-02-26T06:17:35.516Z,97344.06
2023-02-26T06:20:03.958Z,97343.25
2023-02-26T06:22:33.146Z,97342.44
2023-02-26T06:25:00.955Z,97342.41
2023-02-26T06:27:28.771Z,97349.25
2023-02-26T06:29:56.530Z,97346.69
2023-02-26T06:32:24.360Z,97356.94
2023-02-26T06:34:52.121Z,97357.75
2023-02-26T06:37:20.000Z,97360.34
2023-02-26T06:39:49.122Z,97372.28
2023-02-26T06:42:18.460Z,97379.06
2023-02-26T06:44:47.722Z,97377.31
2023-02-26T06:47:15.623Z,97383.25
2023-02-26T06:49:43.391Z,97389.16
2023-02-26T06:52:11.209Z,97389.06
2023-02-26T06:54:38.994Z,97397.59
2023-02-26T06:57:08.176Z,97395.84
2023-02-26T06:59:35.940Z,97399.13
2023-02-26T07:02:03.809Z,97409.31
2023-02-26T07:04:31.649Z,97407.53
2023-02-26T07:06:59.430Z,97423.72
2023-02-26T07:09:27.319Z,97416.78
2023-02-26T07:11:55.216Z,97423.53
2023-02-26T07:14:24.490Z,97429.44
2023-02-26T07:16:52.314Z,97441.31
2023-02-26T07:19:20.204Z,97449.69
2023-02-26T07:21:48.937Z,97451.28
2023-02-26T07:24:17.037Z,97460.41
2023-02-26T07:26:44.802Z,97468.66
2023-02-26T07:29:12.604Z,97467.59
2023-02-26T07:31:41.869Z,97469.31
2023-02-26T07:34:09.845Z,97471.13
2023-02-26T07:36:37.618Z,97479.84
2023-02-26T07:39:05.409Z,97476.22
2023-02-26T07:41:33.140Z,97487.00
2023-02-26T07:44:00.927Z,97492.69
2023-02-26T07:46:28.914Z,97478.75
2023-02-26T07:48:58.293Z,97482.28
2023-02-26T07:51:26.332Z,97485.34
2023-02-26T07:53:54.320Z,97496.84
2023-02-26T07:56:22.122Z,97476.19
2023-02-26T07:58:49.897Z,97491.91
2023-02-26T08:01:17.656Z,97492.81
2023-02-26T08:03:45.445Z,97494.34
2023-02-26T08:06:14.601Z,97499.19
2023-02-26T08:08:42.416Z,97503.09
2023-02-26T08:11:10.215Z,97503.50
2023-02-26T08:13:38.011Z,97505.06
2023-02-26T08:16:06.179Z,97505.06
2023-02-26T08:18:34.016Z,97507.22
2023-02-26T08:21:01.804Z,97512.06
2023-02-26T08:23:30.962Z,97514.53
2023-02-26T08:26:02.552Z,97505.09
2023-02-26T08:28:30.723Z,97517.22
2023-02-26T08:30:58.575Z,97512.19
2023-02-26T08:33:26.675Z,97519.09
2023-02-26T08:35:55.789Z,97519.66
2023-02-26T08:38:23.654Z,97520.22
2023-02-26T08:40:53.721Z,97536.38
2023-02-26T08:43:21.553Z,97512.41
2023-02-26T08:45:49.729Z,97524.69
2023-02-26T08:48:17.526Z,97542.22
2023-02-26T08:50:45.304Z,97540.84
2023-02-26T08:53:13.140Z,97548.28
2023-02-26T08:55:40.917Z,97545.56
2023-02-26T08:58:10.071Z,97545.28
2023-02-26T09:00:37.895Z,97545.03
2023-02-26T09:03:05.692Z,97549.56
2023-02-26T09:05:33.477Z,97560.16
2023-02-26T09:08:01.303Z,97568.81
2023-02-26T09:10:29.223Z,97574.28
2023-02-26T09:12:56.979Z,97572.06
2023-02-26T09:15:26.199Z,97557.94
2023-02-26T09:17:53.959Z,97578.38
2023-02-26T09:20:21.977Z,97577.34
2023-02-26T09:22:49.736Z,97587.81
2023-02-26T09:25:17.720Z,97586.25
2023-02-26T09:27:45.457Z,97584.78
2023-02-26T09:30:14.287Z,97599.28
2023-02-26T09:32:43.417Z,97599.72
2023-02-26T09:35:11.644Z,97591.53
2023-02-26T09:37:40.157Z,97596.06
2023-02-26T09:40:09.771Z,97594.72
2023-02-26T09:42:50.361Z,97615.72
2023-02-26T09:45:25.941Z,97601.31
2023-02-26T09:47:55.432Z,97608.34
2023-02-26T09:50:26.352Z,97600.56
2023-02-26T09:52:57.825Z,97607.31
2023-02-26T09:55:30.038Z,97611.75
2023-02-26T09:58:00.805Z,97621.84
2023-02-26T10:00:34.176Z,97620.78
2023-02-26T10:03:12.688Z,97619.22
2023-02-26T10:05:44.683Z,97615.16
2023-02-26T10:08:16.653Z,97633.84
2023-02-26T10:10:51.429Z,97638.94
2023-02-26T10:13:25.278Z,97637.66
2023-02-26T10:15:54.558Z,97637.25
2023-02-26T10:18:26.407Z,97645.56
2023-02-26T10:20:57.048Z,97646.59
2023-02-26T10:23:28.258Z,97643.00
2023-02-26T10:26:03.462Z,97643.22
2023-02-26T10:28:49.356Z,97664.91
2023-02-26T10:31:25.845Z,97657.66
2023-02-26T10:34:01.806Z,97666.63
2023-02-26T10:36:31.064Z,97676.28
2023-02-26T10:39:03.797Z,97668.19
2023-02-26T10:41:33.266Z,97663.91
2023-02-26T10:44:06.101Z,97665.56
2023-02-26T10:46:41.533Z,97676.38
2023-02-26T10:49:37.828Z,97671.66
2023-02-26T10:52:14.684Z,97675.53
2023-02-26T10:54:48.366Z,97677.75
2023-02-26T10:57:20.124Z,97688.66
2023-02-26T10:59:47.849Z,97684.72
2023-02-26T11:02:38.330Z,97694.19
2023-02-26T11:05:11.252Z,97682.69
2023-02-26T11:07:40.916Z,97696.72
2023-02-26T11:10:16.049Z,97679.53
2023-02-26T11:12:44.125Z,97693.94
2023-02-26T11:15:16.252Z,97700.13
2023-02-26T11:17:45.207Z,97712.81
2023-02-26T11:20:24.953Z,97706.94
2023-02-26T11:22:56.632Z,97704.25
2023-02-26T11:25:26.808Z,97711.63
2023-02-26T11:27:59.466Z,97701.25
2023-02-26T11:30:29.022Z,97696.72
2023-02-26T11:32:59.684Z,97703.03
2023-02-26T11:35:29.064Z,97706.06
2023-02-26T11:38:00.029Z,97693.97
2023-02-26T11:40:35.898Z,97699.56
2023-02-26T11:43:07.415Z,97693.63
2023-02-26T11:45:36.925Z,97695.56
2023-02-26T11:48:07.146Z,97697.19
2023-02-26T11:50:43.222Z,97703.97
2023-02-26T11:53:18.699Z,97702.19
2023-02-26T11:55:49.016Z,97705.03
2023-02-26T11:58:22.088Z,97697.91
2023-02-26T12:00:50.712Z,97696.38
2023-02-26T12:03:20.954Z,97689.44
2023-02-26T12:05:50.434Z,97693.00
2023-02-26T12:08:21.935Z,97696.38
2023-02-26T12:10:55.774Z,97692.31
2023-02-26T12:13:30.826Z,97694.06
2023-02-26T12:16:00.894Z,97699.16
2023-02-26T12:18:37.361Z,97697.94
2023-02-26T12:21:16.923Z,97700.16
2023-02-26T12:24:10.321Z,97677.03
2023-02-26T12:26:42.428Z,97694.38
2023-02-26T12:29:39.464Z,97690.06
2023-02-26T12:32:22.919Z,97690.31
2023-02-26T12:35:16.616Z,97685.97
2023-02-26T12:37:53.479Z,97699.97
2023-02-26T12:40:45.508Z,97694.47
2023-02-26T12:43:17.928Z,97694.47
2023-02-26T12:45:51.048Z,97699.06
2023-02-26T12:48:41.502Z,97706.91
2023-02-26T12:51:16.675Z,97708.63
2023-02-26T12:54:02.638Z,97710.44
2023-02-26T12:57:02.324Z,97711.66
2023-02-26T12:59:59.082Z,97725.22
2023-02-26T13:02:47.636Z,97721.19
2023-02-26T13:05:29.495Z,97716.47
2023-02-26T13:08:06.572Z,97710.22
2023-02-26T13:10:44.146Z,97720.03
2023-02-26T13:13:20.369Z,97708.59
2023-02-26T13:16:01.499Z,97724.16
2023-02-26T13:18:35.826Z,97728.41
2023-02-26T13:21:06.025Z,97728.75
2023-02-26T13:23:37.866Z,97726.94
2023-02-26T13:26:10.158Z,97723.69
2023-02-26T13:28:42.264Z,97723.00
2023-02-26T13:31:13.788Z,97709.00
2023-02-26T13:33:42.119Z,97724.59
2023-02-26T13:36:10.020Z,97726.38
2023-02-26T13:38:46.952Z,97727.16
2023-02-26T13:41:21.221Z,97735.53
2023-02-26T13:44:03.601Z,97726.84
2023-02-26T13:46:41.197Z,97727.63
2023-02-26T13:49:15.704Z,97717.63
2023-02-26T13:51:45.777Z,97734.63
2023-02-26T13:54:36.062Z,97735.81
2023-02-26T13:57:11.229Z,97732.56
2023-02-26T13:59:49.340Z,97734.09
2023-02-26T14:02:37.405Z,97734.19
2023-02-26T14:05:27.784Z,97732.22
2023-02-26T14:08:10.497Z,97734.28
2023-02-26T14:10:46.501Z,97730.38
2023-02-26T14:13:19.620Z,97732.31
2023-02-26T14:15:53.980Z,97733.28
2023-02-26T14:18:29.166Z,97722.28
2023-02-26T14:21:35.902Z,97732.16
2023-02-26T14:24:06.650Z,97736.59
2023-02-26T14:26:37.108Z,97735.59
2023-02-26T14:29:18.055Z,97739.25
2023-02-26T14:31:56.247Z,97738.84
2023-02-26T14:34:26.344Z,97700.22
2023-02-26T14:36:55.837Z,97730.34
2023-02-26T14:39:27.363Z,97726.25
2023-02-26T14:41:59.591Z,97741.41
2023-02-26T14:44:30.851Z,97731.75
2023-02-26T14:46:59.165Z,97738.38
2023-02-26T14:49:29.223Z,97748.25
2023-02-26T14:52:15.438Z,97747.72
2023-02-26T14:55:05.311Z,97745.25
2023-02-26T14:57:39.894Z,97749.78
2023-02-26T15:00:18.912Z,97738.72
2023-02-26T15:03:03.382Z,97745.78
2023-02-26T15:05:40.608Z,97756.38
2023-02-26T15:08:33.941Z,97749.22
2023-02-26T15:11:12.774Z,97745.53
2023-02-26T15:13:54.417Z,97757.44
2023-02-26T15:16:32.495Z,97764.47
2023-02-26T15:19:12.885Z,97759.53
2023-02-26T15:21:49.622Z,97768.22
2023-02-26T15:24:17.471Z,97762.41
2023-02-26T15:26:48.487Z,97768.72
2023-02-26T15:29:16.922Z,97774.28
2023-02-26T15:31:54.153Z,97772.69
2023-02-26T15:34:23.082Z,97773.31
2023-02-26T15:36:53.484Z,97780.06
2023-02-26T15:39:23.487Z,97773.09
2023-02-26T15:41:52.848Z,97765.09
2023-02-26T15:44:23.565Z,97797.22
2023-02-26T15:46:58.118Z,97786.28
2023-02-26T15:49:29.290Z,97804.75
2023-02-26T15:51:58.026Z,97801.28
2023-02-26T15:54:28.632Z,97813.03
2023-02-26T15:56:56.424Z,97801.72
2023-02-26T15:59:28.547Z,97809.28
2023-02-26T16:01:57.881Z,97812.28
2023-02-26T16:04:25.762Z,97819.34
2023-02-26T16:06:55.818Z,97805.63
2023-02-26T16:09:28.889Z,97830.91
2023-02-26T16:11:59.099Z,97829.16
2023-02-26T16:14:29.285Z,97830.88
2023-02-26T16:16:59.000Z,97834.41
2023-02-26T16:19:33.862Z,97832.84
2023-02-26T16:22:04.507Z,97828.53
2023-02-26T16:24:33.235Z,97833.72
2023-02-26T16:27:04.859Z,97833.19
2023-02-26T16:29:34.558Z,97840.28
2023-02-26T16:32:05.262Z,97834.41
2023-02-26T16:34:37.756Z,97833.75
2023-02-26T16:37:14.663Z,97848.44
2023-02-26T16:39:45.895Z,97845.00
2023-02-26T16:42:16.933Z,97851.06
2023-02-26T16:44:48.884Z,97828.91
2023-02-26T16:47:18.334Z,97850.50
2023-02-26T16:49:46.239Z,97855.69
2023-02-26T16:52:17.924Z,97826.88
2023-02-26T16:54:53.439Z,97861.16
2023-02-26T16:57:26.354Z,97872.47
2023-02-26T16:59:56.522Z,97849.44
2023-02-26T17:02:27.971Z,97866.66
2023-02-26T17:05:10.342Z,97870.25
2023-02-26T17:07:48.074Z,97872.06
2023-02-26T17:10:20.750Z,97873.81
2023-02-26T17:12:50.221Z,97876.63
2023-02-26T17:15:21.411Z,97878.53
2023-02-26T17:17:50.804Z,97874.28
2023-02-26T17:20:18.886Z,97877.88
2023-02-26T17:22:46.765Z,97865.31
2023-02-26T17:25:16.680Z,97904.75
2023-02-26T17:27:45.184Z,97892.81
2023-02-26T17:30:16.938Z,97886.94
2023-02-26T17:32:44.873Z,97904.97
2023-02-26T17:35:16.066Z,97905.00
2023-02-26T17:37:45.009Z,97903.41
2023-02-26T17:40:19.505Z,97911.16
2023-02-26T17:42:47.484Z,97916.41
2023-02-26T17:45:15.642Z,97913.91
2023-02-26T17:47:44.573Z,97926.78
2023-02-26T17:50:23.927Z,97934.63
2023-02-26T17:52:51.920Z,97935.50
2023-02-26T17:55:19.684Z,97934.66
2023-02-26T17:57:47.674Z,97937.31
2023-02-26T18:00:17.514Z,97939.16
2023-02-26T18:02:45.748Z,97934.00
2023-02-26T18:05:13.567Z,97934.94
2023-02-26T18:07:42.772Z,97945.28
2023-02-26T18:10:13.605Z,97945.34
2023-02-26T18:12:41.498Z,97945.34
2023-02-26T18:15:11.640Z,97947.97
2023-02-26T18:17:39.442Z,97942.88
2023-02-26T18:20:09.511Z,97952.28
2023-02-26T18:22:37.272Z,97954.06
2023-02-26T18:25:07.106Z,97949.88
2023-02-26T18:27:34.910Z,97953.31
2023-02-26T18:30:04.905Z,97952.44
2023-02-26T18:32:33.200Z,97951.59
2023-02-26T18:35:01.340Z,97955.94
2023-02-26T18:37:29.735Z,97961.16
2023-02-26T18:39:57.655Z,97967.19
2023-02-26T18:42:28.795Z,97968.06
2023-02-26T18:44:56.641Z,97967.19
2023-02-26T18:47:24.563Z,97967.22
2023-02-26T18:49:52.607Z,97960.38
2023-02-26T18:52:20.503Z,97958.66
2023-02-26T18:54:48.361Z,97972.38
2023-02-26T18:57:17.092Z,97962.97
2023-02-26T18:59:46.684Z,97976.75
2023-02-26T19:02:14.946Z,97969.03
2023-02-26T19:04:43.302Z,97971.66
2023-02-26T19:07:11.297Z,97966.59
2023-02-26T19:09:39.534Z,97979.44
2023-02-26T19:12:09.353Z,97985.47
2023-02-26T19:14:38.608Z,97992.38
2023-02-26T19:17:07.770Z,97996.66
2023-02-26T19:19:35.824Z,97988.03
2023-02-26T19:22:03.770Z,97989.84
2023-02-26T19:24:31.645Z,98000.97
2023-02-26T19:26:59.443Z,98000.13
2023-02-26T19:29:27.235Z,98004.44
2023-02-26T19:31:55.255Z,98012.22
2023-02-26T19:34:24.741Z,98005.34
2023-02-26T19:36:53.500Z,98010.50
2023-02-26T19:39:21.264Z,98017.38
2023-02-26T19:41:50.491Z,98021.66
2023-02-26T19:44:18.372Z,98024.25
2023-02-26T19:46:46.170Z,98021.72
2023-02-26T19:49:14.153Z,98024.31
2023-02-26T19:51:43.583Z,98029.47
2023-02-26T19:54:12.800Z,98040.66
2023-02-26T19:56:41.490Z,98032.94
2023-02-26T19:59:09.504Z,98037.28
2023-02-26T20:01:37.420Z,98036.44
2023-02-26T20:04:05.468Z,98043.31
2023-02-26T20:06:33.751Z,98037.28
2023-02-26T20:09:02.997Z,98035.56
2023-02-26T20:11:30.879Z,98045.03
2023-02-26T20:13:58.846Z,98030.44
2023-02-26T20:16:26.937Z,98043.28
2023-02-26T20:18:54.758Z,98045.03
2023-02-26T20:21:23.454Z,98051.94
2023-02-26T20:23:51.504Z,98054.53
2023-02-26T20:26:21.037Z,98054.53
2023-02-26T20:28:49.030Z,98054.59
2023-02-26T20:31:17.409Z,98036.66
2023-02-26T20:33:46.023Z,98056.31
2023-02-26T20:36:14.014Z,98072.69
2023-02-26T20:38:42.953Z,98070.97
2023-02-26T20:41:11.351Z,98074.41
2023-02-26T20:43:40.906Z,98070.97
2023-02-26T20:46:08.703Z,98075.31
2023-02-26T20:48:41.790Z,98077.13
2023-02-26T20:51:12.246Z,98051.47
2023-02-26T20:53:40.435Z,98078.00
2023-02-26T20:56:09.080Z,98079.75
2023-02-26T20:58:38.433Z,98033.50
2023-02-26T21:01:08.026Z,98072.00
2023-02-26T21:03:35.897Z,98071.16
2023-02-26T21:06:03.778Z,98032.66
2023-02-26T21:08:33.506Z,98079.78
2023-02-26T21:11:02.195Z,98066.03
2023-02-26T21:13:30.268Z,98079.81
2023-02-26T21:15:58.182Z,98078.09
2023-02-26T21:18:27.621Z,98088.44
2023-02-26T21:20:55.399Z,98084.13
2023-02-26T21:23:23.669Z,98081.59
2023-02-26T21:25:52.205Z,98093.66
2023-02-26T21:28:19.980Z,98091.94
2023-02-26T21:30:47.903Z,98079.06
2023-02-26T21:33:16.277Z,98079.06
2023-02-26T21:35:46.041Z,98086.81
2023-02-26T21:38:14.112Z,98086.81
2023-02-26T21:40:41.981Z,98091.13
2023-02-26T21:43:10.824Z,98085.06
2023-02-26T21:45:38.871Z,98087.63
2023-02-26T21:48:06.887Z,98055.91
2023-02-26T21:50:35.758Z,98091.94
2023-02-26T21:53:04.995Z,98080.78
2023-02-26T21:55:33.148Z,98084.25
2023-02-26T21:58:02.128Z,98086.00
2023-02-26T22:00:29.940Z,98085.16
2023-02-26T22:02:57.859Z,98084.28
2023-02-26T22:05:25.982Z,98070.50
2023-02-26T22:07:54.076Z,98083.44
2023-02-26T22:10:23.623Z,98092.03
2023-02-26T22:12:51.481Z,98050.03
2023-02-26T22:15:19.542Z,98089.47
2023-02-26T22:17:47.605Z,98084.34
2023-02-26T22:20:15.524Z,98080.03
2023-02-26T22:22:43.428Z,98073.16
2023-02-26T22:25:13.169Z,98083.47
2023-02-26T22:27:42.781Z,98078.31
2023-02-26T22:30:11.860Z,98079.22
2023-02-26T22:32:39.605Z,98074.94
2023-02-26T22:35:08.382Z,98074.94
2023-02-26T22:37:36.414Z,98074.94
2023-02-26T22:40:04.931Z,98077.50
2023-02-26T22:42:32.853Z,98080.09
2023-02-26T22:45:02.319Z,98075.78
2023-02-26T22:47:30.368Z,98081.81
2023-02-26T22:49:58.309Z,98090.41
2023-02-26T22:52:26.464Z,98087.88
2023-02-26T22:54:54.746Z,98078.47
2023-02-26T22:57:22.574Z,98077.59
2023-02-26T22:59:51.135Z,98083.63
2023-02-26T23:02:20.591Z,98077.69
2023-02-26T23:04:48.554Z,98084.53
2023-02-26T23:07:16.399Z,98084.53
2023-02-26T23:09:44.557Z,98085.44
2023-02-26T23:12:12.492Z,98088.00
2023-02-26T23:14:41.023Z,98090.59
2023-02-26T23:17:11.294Z,98086.28
2023-02-26T23:19:41.210Z,98085.44
2023-02-26T23:22:09.348Z,98090.59
2023-02-26T23:24:37.122Z,98079.41
2023-02-26T23:27:05.291Z,98088.84
2023-02-26T23:29:33.248Z,98088.00
2023-02-26T23:32:01.203Z,98044.28
2023-02-26T23:34:29.766Z,98103.44
2023-02-26T23:36:58.903Z,98101.72
2023-02-26T23:39:28.617Z,98102.63
2023-02-26T23:41:56.742Z,98096.59
2023-02-26T23:44:24.805Z,98092.31
2023-02-26T23:46:53.183Z,98095.75
2023-02-26T23:49:20.962Z,98093.16
2023-02-26T23:51:49.160Z,98102.66
2023-02-26T23:54:18.558Z,98085.50
2023-02-26T23:56:47.406Z,98102.66
2023-02-26T23:59:17.864Z,98112.13
